Ottawa Macdonald-Cartier International Airport
CYOW : now visible

Airfield :











YOU CAN JOIN US ON...

 
LOGIN :

Register | Disclaimer

   EN    FR    IT 

 









Legend :    VFR   Marginal VFR   IFR   Intensive IFR   Very Intensive IFR
Visi :
Ceiling :
>= 8 km
>= 3000ft
5 to 8 km
1000 to 3000 ft
1500m to 5 km
500 to 1000 ft
800 to 1500m
200 to 500 ft
< 800m
< 200 ft
Symbols :   Thunderstorms  Fog  Heavy snow  Heavy precipitations  Wind > 20 kt






- Airport Elevation : 374 ft
- IATA code : YOW


CYOW - Ottawa Macdonald-Cartier International

CURRENT METAR :
  • 241100Z 30019G27KT 15SM BKN022 05/02 A2992 RMK SC7 SLP135

EXPIRED METARs :
  • 241000Z 29018G30KT 15SM BKN016 BKN030 06/03 A2988 RMK SC5SC2 PRESRR SLP120
  • 240919Z 29021G31KT 15SM SCT025 BKN072 BKN100 06/04 A2983 RMK SC2AC4AC1 PRESRR SLP104
  • 240900Z 29018G29KT 15SM -SHRA FEW009 SCT025 OVC060 07/04 A2981 RMK SF1SC2SC5 CVCTV CLD EMBD PRESRR SLP098
  • 240852Z 30023G35KT 15SM -SHRA FEW009 BKN025 OVC070 07/05 A2981 RMK SF2SC3AC3 CVCTV CLD EMBD PRESRR SLP096

TAF AMD TAF CYOW
Valid from the 24 at 09:00 until the 25 at 06:00 UTC


240905Z 2409/2506 29017G27KT P6SM OVC030
TEMPO 2409/2411 4SM -RA BR SCT008 OVC015
FM241200 30015G25KT P6SM BKN030
TEMPO 2412/2415 BKN020
BECMG 2415/2417 33010KT
FM250000 36007KT P6SM SCT030 RMK NXT FCST BY 241200Z
CZUL FIR / North America



MET'MAP, your aeronautical weather chart ! - Copyright ORBIFLY December 2007 - Disclaimer

ORBIFLY MET'MAP TEAM :

Programming & Development : Alexandra Zaïnal
Concept & original design : Baudouin d'Aumeries
Assistance for programming : Marc-Olivier Méhu
Technical & hardware support : Manuel Goepfert

Contact : metmap@orbifly.com




SOURCES & CREDITS :

   NOAA       Earth
Advisory